createdAt,value
2022-09-09T00:03:32.524Z,13.20
2022-09-09T00:08:56.628Z,13.10
2022-09-09T00:14:05.327Z,13.10
2022-09-09T00:19:12.236Z,13.10
2022-09-09T00:24:39.869Z,13.10
2022-09-09T00:30:14.999Z,13.10
2022-09-09T00:35:31.211Z,13.10
2022-09-09T00:40:36.918Z,13.10
2022-09-09T00:46:16.744Z,13.00
2022-09-09T00:51:36.604Z,13.10
2022-09-09T00:56:48.301Z,13.10
2022-09-09T01:01:52.727Z,13.10
2022-09-09T01:07:04.950Z,13.10
2022-09-09T01:12:18.425Z,13.00
2022-09-09T01:17:33.753Z,12.90
2022-09-09T01:23:08.091Z,13.00
2022-09-09T01:28:20.142Z,13.00
2022-09-09T01:33:23.664Z,13.00
2022-09-09T01:38:26.798Z,13.00
2022-09-09T01:43:30.884Z,13.00
2022-09-09T01:48:34.854Z,13.10
2022-09-09T01:53:42.685Z,13.10
2022-09-09T01:59:20.733Z,13.20
2022-09-09T02:04:53.876Z,13.20
2022-09-09T02:10:21.771Z,13.20
2022-09-09T02:15:43.339Z,13.20
2022-09-09T02:20:47.335Z,13.20
2022-09-09T02:25:52.900Z,13.20
2022-09-09T02:30:59.883Z,13.20
2022-09-09T02:36:12.873Z,13.20
2022-09-09T02:41:25.037Z,13.20
2022-09-09T02:46:56.952Z,13.20
2022-09-09T02:52:06.902Z,13.20
2022-09-09T02:57:32.833Z,13.30
2022-09-09T03:02:35.849Z,13.30
2022-09-09T03:07:42.778Z,13.30
2022-09-09T03:12:46.210Z,13.30
2022-09-09T03:17:49.667Z,13.20
2022-09-09T03:22:52.249Z,13.20
2022-09-09T03:27:56.027Z,13.20
2022-09-09T03:33:00.028Z,13.20
2022-09-09T03:38:07.286Z,13.30
2022-09-09T03:43:11.549Z,13.20
2022-09-09T03:48:16.399Z,13.20
2022-09-09T03:53:21.163Z,13.30
2022-09-09T03:58:27.876Z,13.30
2022-09-09T04:03:35.210Z,13.40
2022-09-09T04:08:38.632Z,13.40
2022-09-09T04:13:42.957Z,13.40
2022-09-09T04:18:48.462Z,13.50
2022-09-09T04:23:52.451Z,13.50
2022-09-09T04:28:56.827Z,13.60
2022-09-09T04:34:03.270Z,13.70
2022-09-09T04:39:06.147Z,13.80
2022-09-09T04:44:08.948Z,13.80
2022-09-09T04:49:15.047Z,13.90
2022-09-09T04:54:19.157Z,14.00
2022-09-09T04:59:22.900Z,15.10
2022-09-09T05:04:29.868Z,14.30
2022-09-09T05:09:32.410Z,14.40
2022-09-09T05:14:38.257Z,14.50
2022-09-09T05:19:42.870Z,14.70
2022-09-09T05:24:47.047Z,14.70
2022-09-09T05:29:49.725Z,14.90
2022-09-09T05:34:53.250Z,14.90
2022-09-09T05:39:56.137Z,15.10
2022-09-09T05:44:59.186Z,15.10
2022-09-09T05:50:02.694Z,15.40
2022-09-09T05:55:06.068Z,15.40
2022-09-09T06:00:09.537Z,15.50
2022-09-09T06:05:16.274Z,15.50
2022-09-09T06:10:20.059Z,15.60
2022-09-09T06:15:22.683Z,15.70
2022-09-09T06:20:26.225Z,15.70
2022-09-09T06:25:29.592Z,15.80
2022-09-09T06:30:32.186Z,15.90
2022-09-09T06:35:34.697Z,15.90
2022-09-09T06:40:37.257Z,16.20
2022-09-09T06:45:40.065Z,16.30
2022-09-09T06:50:44.177Z,16.30
2022-09-09T06:55:47.488Z,16.50
2022-09-09T07:00:50.610Z,16.60
2022-09-09T07:05:57.600Z,19.50
2022-09-09T07:11:11.605Z,17.00
2022-09-09T07:16:19.381Z,17.00
2022-09-09T07:21:22.648Z,17.00
2022-09-09T07:26:28.706Z,17.00
2022-09-09T07:31:36.318Z,17.10
2022-09-09T07:36:43.178Z,17.30
2022-09-09T07:41:50.149Z,17.30
2022-09-09T07:46:55.442Z,17.50
2022-09-09T07:52:04.243Z,17.40
2022-09-09T07:57:07.853Z,17.50
2022-09-09T08:02:12.268Z,17.60
2022-09-09T08:07:14.922Z,17.70
2022-09-09T08:12:26.011Z,18.40
2022-09-09T08:17:29.106Z,18.90
2022-09-09T08:22:33.742Z,19.20
2022-09-09T08:27:36.268Z,19.20
2022-09-09T08:32:41.000Z,19.20
2022-09-09T08:37:51.407Z,19.40
2022-09-09T08:42:58.319Z,19.30
2022-09-09T08:48:27.901Z,18.90
2022-09-09T08:53:43.640Z,18.50
2022-09-09T08:58:52.357Z,18.20
2022-09-09T09:04:31.603Z,18.70
2022-09-09T09:09:40.455Z,19.40
2022-09-09T09:14:45.592Z,19.40
2022-09-09T09:19:50.667Z,19.30
2022-09-09T09:24:57.652Z,19.60
2022-09-09T09:30:29.865Z,19.90
2022-09-09T09:35:41.900Z,20.70
2022-09-09T09:40:59.125Z,20.50
2022-09-09T09:46:17.739Z,20.10
2022-09-09T09:51:23.913Z,18.90
2022-09-09T09:56:33.514Z,19.00
2022-09-09T10:01:38.984Z,19.50
2022-09-09T10:06:46.077Z,20.60
2022-09-09T10:12:10.714Z,21.30
2022-09-09T10:17:46.464Z,21.70
2022-09-09T10:22:53.194Z,21.50
2022-09-09T10:27:59.707Z,20.60
2022-09-09T10:33:38.321Z,20.00
2022-09-09T10:38:49.418Z,20.00
2022-09-09T10:44:01.765Z,19.50
2022-09-09T10:49:25.932Z,19.40
2022-09-09T10:54:50.079Z,19.50
2022-09-09T10:59:58.470Z,19.50
2022-09-09T11:05:23.082Z,20.30
2022-09-09T11:10:43.915Z,20.70
2022-09-09T11:15:54.718Z,20.70
2022-09-09T11:21:02.272Z,21.00
2022-09-09T11:26:08.445Z,21.00
2022-09-09T11:31:17.395Z,21.20
2022-09-09T11:36:54.311Z,21.40
2022-09-09T11:42:21.091Z,21.60
2022-09-09T11:47:30.368Z,22.00
2022-09-09T11:52:47.514Z,22.10
2022-09-09T11:58:02.441Z,22.00
2022-09-09T12:03:33.697Z,22.00
2022-09-09T12:08:38.126Z,22.30
2022-09-09T12:13:42.916Z,22.50
2022-09-09T12:18:46.840Z,22.00
2022-09-09T12:23:58.219Z,21.70
2022-09-09T12:29:00.792Z,21.80
2022-09-09T12:34:20.168Z,21.80
2022-09-09T12:39:56.591Z,22.20
2022-09-09T12:45:01.398Z,22.40
2022-09-09T12:50:04.537Z,22.20
2022-09-09T12:55:09.736Z,22.00
2022-09-09T13:00:16.909Z,22.40
2022-09-09T13:05:25.169Z,23.10
2022-09-09T13:10:36.738Z,23.30
2022-09-09T13:15:54.652Z,22.90
2022-09-09T13:21:01.868Z,23.00
2022-09-09T13:26:08.730Z,23.10
2022-09-09T13:31:43.725Z,23.20
2022-09-09T13:36:49.695Z,23.50
2022-09-09T13:41:54.096Z,22.80
2022-09-09T13:47:10.839Z,22.80
2022-09-09T13:52:15.547Z,23.10
2022-09-09T13:57:21.036Z,23.30
2022-09-09T14:02:24.320Z,22.70
2022-09-09T14:07:27.765Z,22.70
2022-09-09T14:12:30.249Z,23.10
2022-09-09T14:17:32.951Z,22.80
2022-09-09T14:22:36.544Z,22.30
2022-09-09T14:27:40.447Z,22.10
2022-09-09T14:32:42.958Z,21.90
2022-09-09T14:37:45.726Z,22.00
2022-09-09T14:42:48.311Z,21.80
2022-09-09T14:47:51.001Z,21.50
2022-09-09T14:52:53.635Z,21.30
2022-09-09T14:57:56.086Z,21.50
2022-09-09T15:02:58.706Z,21.70
2022-09-09T15:08:01.562Z,21.40
2022-09-09T15:13:04.503Z,21.10
2022-09-09T15:18:07.187Z,21.20
2022-09-09T15:23:10.111Z,21.10
2022-09-09T15:28:13.692Z,20.90
2022-09-09T15:33:16.393Z,20.90
2022-09-09T15:38:20.026Z,20.80
2022-09-09T15:43:23.242Z,20.70
2022-09-09T15:48:35.014Z,20.60
2022-09-09T15:53:41.054Z,20.60
2022-09-09T15:58:44.908Z,20.40
2022-09-09T16:03:48.038Z,20.30
2022-09-09T16:08:52.754Z,20.10
2022-09-09T16:13:56.437Z,20.00
2022-09-09T16:19:01.183Z,19.90
2022-09-09T16:24:05.225Z,19.80
2022-09-09T16:29:08.001Z,19.70
2022-09-09T16:34:11.349Z,19.70
2022-09-09T16:39:19.504Z,19.60
2022-09-09T16:44:22.562Z,19.50
2022-09-09T16:49:25.009Z,19.30
2022-09-09T16:54:28.232Z,18.90
2022-09-09T16:59:31.408Z,18.60
2022-09-09T17:04:34.465Z,18.40
2022-09-09T17:09:36.899Z,18.40
2022-09-09T17:14:39.533Z,18.20
2022-09-09T17:19:41.919Z,18.00
2022-09-09T17:24:45.360Z,18.00
2022-09-09T17:29:47.950Z,17.90
2022-09-09T17:34:50.530Z,17.80
2022-09-09T17:39:53.203Z,17.70
2022-09-09T17:44:55.931Z,17.60
2022-09-09T17:49:58.679Z,17.70
2022-09-09T17:55:01.579Z,17.60
2022-09-09T18:00:07.317Z,17.40
2022-09-09T18:05:15.265Z,17.20
2022-09-09T18:10:18.198Z,17.30
2022-09-09T18:15:39.214Z,17.30
2022-09-09T18:20:44.898Z,17.20
2022-09-09T18:25:47.529Z,16.90
2022-09-09T18:30:50.162Z,16.70
2022-09-09T18:35:52.955Z,16.60
2022-09-09T18:40:55.671Z,16.70
2022-09-09T18:46:04.633Z,16.70
2022-09-09T18:51:09.797Z,16.70
2022-09-09T18:56:13.631Z,16.50
2022-09-09T19:01:16.418Z,16.60
2022-09-09T19:06:23.946Z,16.60
2022-09-09T19:11:27.865Z,16.30
2022-09-09T19:16:33.305Z,16.30
2022-09-09T19:21:38.355Z,16.10
2022-09-09T19:26:44.208Z,16.00
2022-09-09T19:32:09.494Z,15.90
2022-09-09T19:37:10.332Z,15.80
2022-09-09T19:42:12.827Z,15.70
2022-09-09T19:47:15.429Z,15.70
2022-09-09T19:52:18.893Z,15.60
2022-09-09T19:57:22.778Z,15.50
2022-09-09T20:02:25.382Z,15.50
2022-09-09T20:07:28.093Z,15.30
2022-09-09T20:12:30.507Z,15.30
2022-09-09T20:17:33.082Z,15.20
2022-09-09T20:22:36.342Z,15.20
2022-09-09T20:27:38.795Z,15.20
2022-09-09T20:32:42.099Z,15.30
2022-09-09T20:37:44.723Z,15.20
2022-09-09T20:42:47.745Z,15.10
2022-09-09T20:47:50.584Z,15.00
2022-09-09T20:52:53.085Z,14.90
2022-09-09T20:57:58.622Z,14.90
2022-09-09T21:03:02.403Z,14.90
2022-09-09T21:08:04.855Z,14.70
2022-09-09T21:13:08.056Z,14.70
2022-09-09T21:18:11.288Z,14.70
2022-09-09T21:23:15.473Z,14.70
2022-09-09T21:28:18.365Z,14.50
2022-09-09T21:33:22.436Z,14.40
2022-09-09T21:38:25.321Z,14.30
2022-09-09T21:43:27.910Z,14.30
2022-09-09T21:48:31.646Z,14.30
2022-09-09T21:53:34.693Z,14.30
2022-09-09T21:58:37.873Z,14.10
2022-09-09T22:03:41.386Z,14.20
2022-09-09T22:08:45.551Z,14.10
2022-09-09T22:13:49.084Z,14.10
2022-09-09T22:18:53.736Z,14.10
2022-09-09T22:24:01.457Z,14.20
2022-09-09T22:29:05.428Z,14.10
2022-09-09T22:34:07.949Z,14.10
2022-09-09T22:39:10.499Z,14.10
2022-09-09T22:44:12.897Z,14.20
2022-09-09T22:49:15.390Z,14.20
2022-09-09T22:54:21.737Z,14.30
2022-09-09T22:59:24.631Z,14.40
2022-09-09T23:04:27.557Z,14.30
2022-09-09T23:09:30.102Z,14.40
2022-09-09T23:14:33.849Z,14.50
2022-09-09T23:19:37.136Z,14.40
2022-09-09T23:24:39.569Z,14.50
2022-09-09T23:29:42.411Z,14.40
2022-09-09T23:34:47.812Z,14.30
2022-09-09T23:39:50.346Z,14.20
2022-09-09T23:44:53.578Z,14.30
2022-09-09T23:49:56.297Z,14.30
2022-09-09T23:54:59.514Z,14.30
